createdAt,value
2022-08-03T00:00:00.093Z,100463.59
2022-08-03T00:01:00.504Z,100466.35
2022-08-03T00:02:01.133Z,100466.8
2022-08-03T00:03:01.614Z,100466.58
2022-08-03T00:04:02.266Z,100464.81
2022-08-03T00:05:02.593Z,100467.06
2022-08-03T00:06:04.206Z,100463.58
2022-08-03T00:07:03.211Z,100459.62
2022-08-03T00:08:04.471Z,100461.28
2022-08-03T00:09:05.685Z,100461.21
2022-08-03T00:10:05.241Z,100463.02
2022-08-03T00:11:05.193Z,100462.89
2022-08-03T00:12:06.420Z,100460.91
2022-08-03T00:13:06.318Z,100466.21
2022-08-03T00:14:06.942Z,100463.77
2022-08-03T00:15:11.415Z,100460.23
2022-08-03T00:16:09.012Z,100467.13
2022-08-03T00:17:09.125Z,100460.67
2022-08-03T00:18:09.934Z,100460.75
2022-08-03T00:19:10.154Z,100461.4
2022-08-03T00:20:11.394Z,100458.48
2022-08-03T00:21:11.387Z,100461.7
2022-08-03T00:22:11.296Z,100463.64
2022-08-03T00:23:11.722Z,100467.06
2022-08-03T00:24:12.222Z,100468.49
2022-08-03T00:25:12.605Z,100471.8
2022-08-03T00:26:13.060Z,100472.98
2022-08-03T00:27:16.643Z,100474.52
2022-08-03T00:28:14.200Z,100474.72
2022-08-03T00:29:14.615Z,100475.95
2022-08-03T00:30:15.440Z,100472.95
2022-08-03T00:31:15.838Z,100473.94
2022-08-03T00:32:16.400Z,100467.75
2022-08-03T00:33:16.995Z,100470.33
2022-08-03T00:34:16.900Z,100466.02
2022-08-03T00:35:36.950Z,100471.71
2022-08-03T00:36:21.937Z,100470.91
2022-08-03T00:37:22.453Z,100470.8
2022-08-03T00:38:23.379Z,100468.86
2022-08-03T00:39:23.768Z,100467.92
2022-08-03T00:40:24.829Z,100468.09
2022-08-03T00:41:24.832Z,100468.7
2022-08-03T00:42:28.538Z,100469.13
2022-08-03T00:43:26.791Z,100467.8
2022-08-03T00:44:26.695Z,100467.53
2022-08-03T00:45:29.777Z,100470.44
2022-08-03T00:46:27.536Z,100476.63
2022-08-03T00:47:28.049Z,100475.36
2022-08-03T00:48:33.198Z,100480.84
2022-08-03T00:49:31.380Z,100478.11
2022-08-03T00:50:34.826Z,100476
2022-08-03T00:51:33.915Z,100477.23
2022-08-03T00:52:33.201Z,100474.73
2022-08-03T00:53:35.575Z,100473.12
2022-08-03T00:54:36.295Z,100474.27
2022-08-03T00:55:36.727Z,100471.41
2022-08-03T00:56:35.993Z,100476.03
2022-08-03T00:57:35.695Z,100475.63
2022-08-03T00:58:36.104Z,100476.77
2022-08-03T00:59:36.322Z,100479.89
2022-08-03T01:00:39.194Z,100475.3
2022-08-03T01:01:37.283Z,100477.98
2022-08-03T01:02:39.312Z,100476.54
2022-08-03T01:03:38.289Z,100472.86
2022-08-03T01:04:38.704Z,100475.8
2022-08-03T01:12:06.610Z,100477.12
2022-08-03T01:16:15.746Z,100479.5
2022-08-03T01:17:19.335Z,100480.83
2022-08-03T01:20:20.873Z,100482.09
2022-08-03T01:30:43.902Z,100477
2022-08-03T01:37:03.293Z,100483.65
2022-08-03T01:39:04.124Z,100481.06
2022-08-03T01:40:03.411Z,100476.98
2022-08-03T01:42:07.519Z,100480.86
2022-08-03T01:43:08.038Z,100484.52
2022-08-03T01:44:30.065Z,100494.07
2022-08-03T01:45:08.862Z,100501.66
2022-08-03T01:46:09.285Z,100501.71
2022-08-03T01:47:08.894Z,100500.17
2022-08-03T01:48:10.943Z,100496.27
2022-08-03T01:49:11.088Z,100495.08
2022-08-03T01:50:11.063Z,100490.73
2022-08-03T01:51:10.660Z,100491
2022-08-03T01:52:12.922Z,100492.3
2022-08-03T01:53:13.332Z,100491.02
2022-08-03T01:54:12.511Z,100491.26
2022-08-03T01:55:13.544Z,100490.76
2022-08-03T01:56:13.345Z,100491.58
2022-08-03T01:57:13.153Z,100497.73
2022-08-03T01:58:15.103Z,100501.73
2022-08-03T01:59:16.754Z,100504.44
2022-08-03T02:00:14.911Z,100498.16
2022-08-03T02:01:17.043Z,100495.91
2022-08-03T02:02:33.204Z,100492.44
2022-08-03T02:03:18.531Z,100496.55
2022-08-03T02:05:20.891Z,100497.89
2022-08-03T02:07:01.615Z,100500.97
2022-08-03T02:07:20.379Z,100505.09
2022-08-03T02:08:20.595Z,100501.99
2022-08-03T02:09:22.239Z,100499.27
2022-08-03T02:10:35.489Z,100501.98
2022-08-03T02:11:23.591Z,100498.84
2022-08-03T02:12:28.399Z,100500.48
2022-08-03T02:13:28.097Z,100501.44
2022-08-03T02:14:28.311Z,100501.7
2022-08-03T02:15:28.633Z,100498.52
2022-08-03T02:16:31.395Z,100501.59
2022-08-03T02:17:38.725Z,100502.38
2022-08-03T02:18:34.490Z,100502.42
2022-08-03T02:19:35.819Z,100501.06
2022-08-03T02:20:34.812Z,100500.55
2022-08-03T02:21:57.291Z,100501.79
2022-08-03T02:22:36.052Z,100501.08
2022-08-03T02:23:34.831Z,100498.78
2022-08-03T02:24:35.352Z,100499.86
2022-08-03T02:25:42.735Z,100499.23
2022-08-03T02:26:42.841Z,100500.54
2022-08-03T02:28:47.773Z,100499.74
2022-08-03T02:29:46.742Z,100498.8
2022-08-03T02:30:51.807Z,100497.41
2022-08-03T02:31:49.321Z,100501.91
2022-08-03T02:32:52.401Z,100501.31
2022-08-03T02:33:57.621Z,100499.38
2022-08-03T02:34:53.035Z,100497.39
2022-08-03T02:35:52.920Z,100500.06
2022-08-03T02:36:53.762Z,100506.78
2022-08-03T02:37:54.680Z,100510.56
2022-08-03T02:38:54.991Z,100505.6
2022-08-03T02:40:01.050Z,100507.05
2022-08-03T02:41:01.261Z,100507.98
2022-08-03T02:42:01.471Z,100505.42
2022-08-03T02:43:12.432Z,100509.77
2022-08-03T02:44:06.673Z,100502.99
2022-08-03T02:45:10.084Z,100507.38
2022-08-03T02:46:12.040Z,100506.75
2022-08-03T02:47:11.834Z,100506.41
2022-08-03T02:48:12.967Z,100505.08
2022-08-03T02:49:41.110Z,100506.11
2022-08-03T02:50:17.228Z,100502.62
2022-08-03T02:51:18.720Z,100507.45
2022-08-03T02:52:18.798Z,100505.71
2022-08-03T02:53:19.837Z,100506.59
2022-08-03T02:54:20.182Z,100503.87
2022-08-03T02:55:21.326Z,100499.56
2022-08-03T02:56:20.496Z,100500.76
2022-08-03T02:57:21.644Z,100501.23
2022-08-03T02:58:21.140Z,100504.38
2022-08-03T02:59:21.341Z,100503.82
2022-08-03T03:00:27.814Z,100504.16
2022-08-03T03:01:23.162Z,100501.38
2022-08-03T03:02:22.183Z,100502.83
2022-08-03T03:03:23.110Z,100506.25
2022-08-03T03:04:24.195Z,100502.38
2022-08-03T03:05:55.927Z,100505.27
2022-08-03T03:06:30.604Z,100503.53
2022-08-03T03:07:31.451Z,100503.7
2022-08-03T03:08:32.871Z,100508.75
2022-08-03T03:09:40.233Z,100506.15
2022-08-03T03:10:34.419Z,100509.16
2022-08-03T03:11:38.628Z,100509.56
2022-08-03T03:12:40.874Z,100509.59
2022-08-03T03:13:39.652Z,100510.8
2022-08-03T03:14:39.461Z,100512.11
2022-08-03T03:15:39.780Z,100512.27
2022-08-03T03:16:42.041Z,100511.2
2022-08-03T03:17:41.332Z,100510.72
2022-08-03T03:18:41.541Z,100507.47
2022-08-03T03:19:42.979Z,100509.73
2022-08-03T03:20:41.760Z,100508.36
2022-08-03T03:21:43.597Z,100511.28
2022-08-03T03:22:43.504Z,100511.17
2022-08-03T03:23:43.508Z,100510.66
2022-08-03T03:24:44.348Z,100512.54
2022-08-03T03:25:44.251Z,100511.88
2022-08-03T03:26:44.664Z,100512.83
2022-08-03T03:27:49.485Z,100511.83
2022-08-03T03:28:48.764Z,100511.77
2022-08-03T03:29:49.300Z,100515.28
2022-08-03T03:30:52.777Z,100515.77
2022-08-03T03:31:51.435Z,100516.34
2022-08-03T03:32:52.591Z,100515.95
2022-08-03T03:33:51.671Z,100514.88
2022-08-03T03:34:52.405Z,100515.11
2022-08-03T03:35:53.733Z,100518.69
2022-08-03T03:36:52.894Z,100518.8
2022-08-03T03:37:53.654Z,100516.66
2022-08-03T03:38:53.921Z,100518.21
2022-08-03T03:39:57.240Z,100517.17
2022-08-03T03:40:55.500Z,100518.69
2022-08-03T03:41:55.523Z,100518.16
2022-08-03T03:42:55.830Z,100515.61
2022-08-03T03:43:56.140Z,100517.73
2022-08-03T03:44:56.856Z,100512.81
2022-08-03T03:45:58.501Z,100517.59
2022-08-03T03:47:00.465Z,100519.67
2022-08-03T03:48:00.471Z,100520.17
2022-08-03T03:48:58.378Z,100520.58
2022-08-03T03:49:59.454Z,100522.55
2022-08-03T03:50:59.354Z,100525.94
2022-08-03T03:51:59.680Z,100528.19
2022-08-03T03:53:00.600Z,100526.31
2022-08-03T03:54:04.907Z,100522.59
2022-08-03T03:55:02.416Z,100523.94
2022-08-03T03:56:03.294Z,100521.22
2022-08-03T03:57:04.012Z,100521.22
2022-08-03T03:58:04.311Z,100524
2022-08-03T03:59:04.422Z,100528.25
2022-08-03T04:00:05.683Z,100524.84
2022-08-03T04:01:05.051Z,100533.24
2022-08-03T04:02:06.710Z,100532.38
2022-08-03T04:03:05.992Z,100530.39
2022-08-03T04:04:06.508Z,100529.77
2022-08-03T04:05:08.459Z,100529.79
2022-08-03T04:06:07.846Z,100529.76
2022-08-03T04:07:07.660Z,100532.2
2022-08-03T04:08:12.383Z,100527.91
2022-08-03T04:09:11.153Z,100528.31
2022-08-03T04:12:22.837Z,100533.09
2022-08-03T04:13:21.817Z,100532.92
2022-08-03T04:14:28.601Z,100532.18
2022-08-03T04:15:24.293Z,100538.13
2022-08-03T04:16:26.655Z,100534.38
2022-08-03T04:17:28.402Z,100534.39
2022-08-03T04:18:29.733Z,100533.91
2022-08-03T04:20:33.050Z,100533.96
2022-08-03T04:21:32.219Z,100534.45
2022-08-03T04:22:32.739Z,100534
2022-08-03T04:23:34.585Z,100536.81
2022-08-03T04:24:35.323Z,100537.27
2022-08-03T04:25:37.684Z,100540.66
2022-08-03T04:26:39.532Z,100543.22
2022-08-03T04:27:40.448Z,100544.31
2022-08-03T04:28:41.482Z,100539.81
2022-08-03T04:29:48.119Z,100540.66
2022-08-03T04:30:45.392Z,100546.95
2022-08-03T04:31:45.594Z,100545.1
2022-08-03T04:32:45.961Z,100546.46
2022-08-03T04:33:45.204Z,100542.62
2022-08-03T04:34:44.700Z,100548.45
2022-08-03T04:36:00.891Z,100547.65
2022-08-03T04:37:51.479Z,100549.17
2022-08-03T04:39:54.450Z,100545.62
2022-08-03T04:40:56.924Z,100549.2
2022-08-03T04:42:07.095Z,100550.44
2022-08-03T04:42:58.174Z,100551.36
2022-08-03T04:43:59.091Z,100551.26
2022-08-03T04:45:01.428Z,100552.41
2022-08-03T04:46:00.427Z,100547.77
2022-08-03T04:47:00.448Z,100553.33
2022-08-03T04:48:02.857Z,100550.69
2022-08-03T04:49:01.883Z,100552.05
2022-08-03T04:50:09.137Z,100554.08
2022-08-03T04:51:05.082Z,100555.05
2022-08-03T04:52:07.339Z,100557.75
2022-08-03T04:53:08.158Z,100553.5
2022-08-03T04:54:07.241Z,100553.81
2022-08-03T04:55:08.180Z,100554.39
2022-08-03T04:56:08.900Z,100555.38
2022-08-03T04:57:08.699Z,100553.09
2022-08-03T04:58:08.915Z,100555.34
2022-08-03T04:59:12.705Z,100553.96
2022-08-03T05:00:11.331Z,100553.41
2022-08-03T05:01:10.883Z,100553.44
2022-08-03T05:02:11.170Z,100554.97
2022-08-03T05:03:20.211Z,100558.73
2022-08-03T05:04:16.828Z,100560.73
2022-08-03T05:05:17.362Z,100560.3
2022-08-03T05:06:17.456Z,100561.33
2022-08-03T05:07:22.700Z,100562.53
2022-08-03T05:08:27.770Z,100561.64
2022-08-03T05:09:49.942Z,100563.77
2022-08-03T05:10:28.142Z,100560.57
2022-08-03T05:11:28.460Z,100558.84
2022-08-03T05:12:32.535Z,100557.32
2022-08-03T05:13:30.374Z,100557.95
2022-08-03T05:14:31.072Z,100560.27
2022-08-03T05:15:31.142Z,100565.73
2022-08-03T05:16:31.771Z,100560.92
2022-08-03T05:17:32.179Z,100565.34
2022-08-03T05:18:32.594Z,100562.72
2022-08-03T05:19:32.889Z,100565.4
2022-08-03T05:20:33.122Z,100565.84
2022-08-03T05:21:52.596Z,100568.54
2022-08-03T05:22:35.380Z,100572.25
2022-08-03T05:23:35.910Z,100573.31
2022-08-03T05:24:36.022Z,100574.54
2022-08-03T05:25:36.631Z,100575.56
2022-08-03T05:26:36.985Z,100577.87
2022-08-03T05:27:37.157Z,100576.34
2022-08-03T05:28:37.982Z,100576.84
2022-08-03T05:28:51.301Z,100577.36
2022-08-03T05:28:53.661Z,100577.36
2022-08-03T05:28:58.767Z,100579.38
2022-08-03T05:29:04.101Z,100579.38
2022-08-03T05:29:08.702Z,100579.38
2022-08-03T05:29:14.030Z,100579.34
2022-08-03T05:29:18.888Z,100579.34
2022-08-03T05:29:23.942Z,100579.34
2022-08-03T05:29:28.881Z,100579.86
2022-08-03T05:29:33.804Z,100579.86
2022-08-03T05:30:34.752Z,100579.2
2022-08-03T05:31:34.723Z,100579.77
2022-08-03T05:32:35.359Z,100574.44
2022-08-03T05:33:35.462Z,100577.25
2022-08-03T05:34:36.028Z,100575.77
2022-08-03T05:35:57.187Z,100576.31
2022-08-03T05:36:39.381Z,100575.38
2022-08-03T05:37:39.893Z,100573.83
2022-08-03T05:38:42.140Z,100572.17
2022-08-03T05:39:42.470Z,100573.42
2022-08-03T05:40:46.976Z,100574.57
2022-08-03T05:41:45.140Z,100575.53
2022-08-03T05:42:45.561Z,100577.92
2022-08-03T05:43:46.277Z,100575.65
2022-08-03T05:44:46.281Z,100575.5
2022-08-03T05:45:46.795Z,100573.88
2022-08-03T05:46:48.951Z,100574.61
2022-08-03T05:47:49.481Z,100575.69
2022-08-03T05:48:50.102Z,100569.63
2022-08-03T05:49:50.210Z,100574.31
2022-08-03T05:50:50.531Z,100575.55
2022-08-03T05:51:59.980Z,100577.72
2022-08-03T05:52:56.054Z,100577.5
2022-08-03T05:53:54.133Z,100578.64
2022-08-03T05:54:56.247Z,100576.27
2022-08-03T05:55:59.308Z,100576.02
2022-08-03T05:56:56.090Z,100576.77
2022-08-03T05:57:56.762Z,100582.81
2022-08-03T05:58:56.727Z,100577.62
2022-08-03T05:59:58.666Z,100580.68
2022-08-03T06:00:57.548Z,100580.77
2022-08-03T06:01:58.036Z,100578.64
2022-08-03T06:02:58.381Z,100578.63
2022-08-03T06:03:59.100Z,100582.15
2022-08-03T06:04:59.115Z,100584.23
2022-08-03T06:06:00.446Z,100584.55
2022-08-03T06:06:59.951Z,100583.05
2022-08-03T06:08:00.147Z,100580.52
2022-08-03T06:09:00.774Z,100577.53
2022-08-03T06:10:35.998Z,100580.44
2022-08-03T06:11:03.762Z,100575.56
2022-08-03T06:12:04.491Z,100579.12
2022-08-03T06:13:04.180Z,100579.5
2022-08-03T06:14:04.601Z,100576.77
2022-08-03T06:15:05.741Z,100578.22
2022-08-03T06:16:05.839Z,100579.05
2022-08-03T06:17:05.540Z,100577.72
2022-08-03T06:18:06.258Z,100576.86
2022-08-03T06:19:06.585Z,100580.16
2022-08-03T06:20:07.609Z,100579.81
2022-08-03T06:21:11.047Z,100582.05
2022-08-03T06:22:07.525Z,100574.44
2022-08-03T06:23:07.946Z,100574.29
2022-08-03T06:24:08.937Z,100580.41
2022-08-03T06:25:12.814Z,100578.84
2022-08-03T06:26:11.037Z,100579.45
2022-08-03T06:27:11.137Z,100581.97
2022-08-03T06:28:15.077Z,100583.67
2022-08-03T06:29:11.972Z,100584.42
2022-08-03T06:30:16.991Z,100583.64
2022-08-03T06:31:17.301Z,100582.97
2022-08-03T06:32:17.876Z,100582.55
2022-08-03T06:33:18.028Z,100584.28
2022-08-03T06:34:32.576Z,100584.03
2022-08-03T06:35:22.923Z,100586.66
2022-08-03T06:36:23.374Z,100585.09
2022-08-03T06:37:23.790Z,100584.34
2022-08-03T06:38:24.108Z,100584.14
2022-08-03T06:39:24.523Z,100586.19
2022-08-03T06:40:25.445Z,100579.92
2022-08-03T06:41:26.575Z,100583.64
2022-08-03T06:42:26.078Z,100586.2
2022-08-03T06:43:26.151Z,100586.47
2022-08-03T06:44:26.807Z,100583.48
2022-08-03T06:45:31.678Z,100582.95
2022-08-03T06:46:29.995Z,100582.68
2022-08-03T06:47:30.104Z,100587.81
2022-08-03T06:48:31.133Z,100590.09
2022-08-03T06:49:31.067Z,100590.11
2022-08-03T06:50:32.886Z,100587.45
2022-08-03T06:52:03.849Z,100590.93
2022-08-03T06:52:38.227Z,100590.17
2022-08-03T06:53:36.399Z,100593.22
2022-08-03T06:54:36.606Z,100589.55
2022-08-03T06:55:40.754Z,100589.28
2022-08-03T06:56:40.098Z,100588.59
2022-08-03T06:57:40.406Z,100589.47
2022-08-03T06:58:40.824Z,100588.77
2022-08-03T07:00:09.903Z,100591.58
2022-08-03T07:00:43.576Z,100590.97
2022-08-03T07:01:44.108Z,100590.75
2022-08-03T07:02:44.332Z,100589.41
2022-08-03T07:03:47.562Z,100594.84
2022-08-03T07:04:49.840Z,100596.41
2022-08-03T07:05:50.209Z,100595.19
2022-08-03T07:06:50.511Z,100598.48
2022-08-03T07:07:51.025Z,100598.95
2022-08-03T07:08:53.597Z,100598.64
2022-08-03T07:09:57.115Z,100600.51
2022-08-03T07:10:55.747Z,100601.8
2022-08-03T07:11:55.857Z,100597.64
2022-08-03T07:12:56.991Z,100601.93
2022-08-03T07:13:56.696Z,100604.69
2022-08-03T07:15:01.416Z,100601.7
2022-08-03T07:15:59.789Z,100598.44
2022-08-03T07:17:00.099Z,100602.62
2022-08-03T07:18:00.607Z,100600.23
2022-08-03T07:19:00.726Z,100600.15
2022-08-03T07:20:04.319Z,100601.55
2022-08-03T07:21:01.653Z,100597.85
2022-08-03T07:22:04.218Z,100603.58
2022-08-03T07:23:02.289Z,100602.69
2022-08-03T07:24:02.491Z,100601.62
2022-08-03T07:25:03.420Z,100601.66
2022-08-03T07:26:03.232Z,100603.88
2022-08-03T07:27:04.149Z,100599.77
2022-08-03T07:28:04.462Z,100603.38
2022-08-03T07:29:04.507Z,100602.44
2022-08-03T07:30:08.478Z,100603.53
2022-08-03T07:31:07.557Z,100602.87
2022-08-03T07:32:07.979Z,100607.88
2022-08-03T07:33:08.078Z,100609.8
2022-08-03T07:34:08.361Z,100602.44
2022-08-03T07:35:24.667Z,100601.66
2022-08-03T07:36:12.910Z,100608.49
2022-08-03T07:37:13.129Z,100608.3
2022-08-03T07:38:13.539Z,100603.75
2022-08-03T07:39:17.685Z,100604.59
2022-08-03T07:40:15.620Z,100600
2022-08-03T07:41:15.978Z,100604.47
2022-08-03T07:42:16.444Z,100602.47
2022-08-03T07:43:16.645Z,100604.96
2022-08-03T07:44:17.379Z,100602.86
2022-08-03T07:45:17.579Z,100604.14
2022-08-03T07:46:17.705Z,100605.92
2022-08-03T07:47:26.209Z,100606.12
2022-08-03T07:48:18.113Z,100605.51
2022-08-03T07:49:18.624Z,100604.52
2022-08-03T07:50:19.261Z,100605.28
2022-08-03T07:51:19.052Z,100602.8
2022-08-03T07:52:19.620Z,100606.8
2022-08-03T07:53:19.890Z,100606.76
2022-08-03T07:54:20.001Z,100607.46
2022-08-03T07:55:23.179Z,100609.23
2022-08-03T07:56:20.730Z,100610.36
2022-08-03T07:57:21.139Z,100609.98
2022-08-03T07:58:24.203Z,100613.89
2022-08-03T07:59:21.880Z,100610.39
2022-08-03T08:00:22.190Z,100611.84
2022-08-03T08:01:23.105Z,100610.28
2022-08-03T08:02:22.820Z,100611.86
2022-08-03T08:03:23.441Z,100613.66
2022-08-03T08:04:23.659Z,100612.17
2022-08-03T08:05:23.856Z,100614.81
2022-08-03T08:06:24.136Z,100615.47
2022-08-03T08:07:24.387Z,100618.93
2022-08-03T08:08:24.810Z,100616.29
2022-08-03T08:09:24.991Z,100614.52
2022-08-03T08:10:25.523Z,100620.25
2022-08-03T08:11:25.737Z,100620.19
2022-08-03T08:12:26.065Z,100621.56
2022-08-03T08:13:26.672Z,100624.47
2022-08-03T08:14:26.678Z,100620.77
2022-08-03T08:15:27.000Z,100621.2
2022-08-03T08:16:27.509Z,100624.31
2022-08-03T08:17:28.129Z,100622.52
2022-08-03T08:18:28.158Z,100625.9
2022-08-03T08:19:28.459Z,100628.38
2022-08-03T08:21:52.951Z,100625.34
2022-08-03T08:22:33.811Z,100619.86
2022-08-03T08:23:42.307Z,100620.36
2022-08-03T08:24:35.870Z,100617.47
2022-08-03T08:25:36.279Z,100618.77
2022-08-03T08:26:37.208Z,100618.13
2022-08-03T08:28:41.617Z,100618.55
2022-08-03T08:29:53.102Z,100618.39
2022-08-03T08:30:43.087Z,100621.73
2022-08-03T08:31:43.072Z,100618.98
2022-08-03T08:32:43.489Z,100620.57
2022-08-03T08:34:45.947Z,100623.78
2022-08-03T08:35:46.263Z,100622.12
2022-08-03T08:36:46.903Z,100620.64
2022-08-03T08:37:50.796Z,100619.91
2022-08-03T08:38:49.055Z,100615.81
2022-08-03T08:39:49.673Z,100620.24
2022-08-03T08:40:50.625Z,100623.98
2022-08-03T08:41:53.346Z,100618.92
2022-08-03T08:42:58.370Z,100622.49
2022-08-03T08:43:51.458Z,100618.92
2022-08-03T08:44:52.083Z,100621.06
2022-08-03T08:45:54.122Z,100623.11
2022-08-03T08:46:55.358Z,100625.42
2022-08-03T08:47:59.912Z,100625.48
2022-08-03T08:48:54.808Z,100626.09
2022-08-03T08:50:09.158Z,100627.16
2022-08-03T08:51:00.098Z,100629.72
2022-08-03T08:52:01.168Z,100627.98
2022-08-03T08:53:02.486Z,100627.98
2022-08-03T08:54:02.386Z,100626.38
2022-08-03T08:55:03.190Z,100629.62
2022-08-03T08:56:02.190Z,100626.27
2022-08-03T08:57:12.480Z,100629.78
2022-08-03T08:58:06.398Z,100628.25
2022-08-03T09:00:12.746Z,100622.04
2022-08-03T09:01:10.262Z,100627.47
2022-08-03T09:02:10.942Z,100625.96
2022-08-03T09:03:11.968Z,100622.98
2022-08-03T09:04:15.141Z,100628.22
2022-08-03T09:05:17.184Z,100630.22
2022-08-03T09:06:15.461Z,100632.02
2022-08-03T09:07:20.739Z,100627.86
2022-08-03T09:08:18.910Z,100625.66
2022-08-03T09:10:01.332Z,100623.38
2022-08-03T09:10:20.971Z,100622.7
2022-08-03T09:11:22.552Z,100625.79
2022-08-03T09:12:42.273Z,100627.53
2022-08-03T09:13:25.430Z,100629.41
2022-08-03T09:14:37.084Z,100631.1
2022-08-03T09:15:31.690Z,100625.53
2022-08-03T09:16:29.851Z,100629.41
2022-08-03T09:17:45.432Z,100632.15
2022-08-03T09:18:35.831Z,100629.36
2022-08-03T09:19:36.533Z,100628.56
2022-08-03T09:20:37.044Z,100626.34
2022-08-03T09:21:37.823Z,100624.34
2022-08-03T09:24:01.370Z,100617.4
2022-08-03T09:25:43.322Z,100619.69
2022-08-03T09:27:47.841Z,100618.42
2022-08-03T09:29:55.126Z,100622.84
2022-08-03T09:34:08.369Z,100618.73
2022-08-03T09:35:05.398Z,100618.45
2022-08-03T09:36:05.423Z,100620.42
2022-08-03T09:37:13.262Z,100618.44
2022-08-03T09:39:10.150Z,100618.31
2022-08-03T09:40:08.496Z,100617.81
2022-08-03T09:41:18.682Z,100620.94
2022-08-03T09:42:18.867Z,100621.23
2022-08-03T09:43:12.215Z,100621.65
2022-08-03T09:44:24.427Z,100622.86
2022-08-03T09:45:26.964Z,100621.91
2022-08-03T09:46:14.496Z,100619.44
2022-08-03T09:48:26.386Z,100618.6
2022-08-03T09:49:18.848Z,100617.12
2022-08-03T09:50:19.226Z,100614.88
2022-08-03T09:52:17.971Z,100616.33
2022-08-03T09:52:39.352Z,100616.11
2022-08-03T09:53:23.235Z,100617.7
2022-08-03T09:54:32.554Z,100620.53
2022-08-03T09:56:34.218Z,100615.25
2022-08-03T09:57:31.146Z,100616.3
2022-08-03T09:58:31.866Z,100617.09
2022-08-03T09:59:33.271Z,100612.16
2022-08-03T10:00:32.204Z,100615.67
2022-08-03T10:01:36.463Z,100617.18
2022-08-03T10:02:34.046Z,100619.97
2022-08-03T10:04:02.818Z,100617.3
2022-08-03T10:05:39.405Z,100615.36
2022-08-03T10:06:39.497Z,100610.39
2022-08-03T10:07:48.408Z,100612.69
2022-08-03T10:08:40.839Z,100611.8
2022-08-03T10:10:49.609Z,100613.22
2022-08-03T10:11:47.095Z,100611.3
2022-08-03T10:12:47.473Z,100616.58
2022-08-03T10:13:47.848Z,100614.44
2022-08-03T10:14:48.469Z,100613.88
2022-08-03T10:16:23.842Z,100615.23
2022-08-03T10:16:50.520Z,100618.98
2022-08-03T10:17:50.845Z,100620.91
2022-08-03T10:18:51.352Z,100623.68
2022-08-03T10:19:51.785Z,100621.02
2022-08-03T10:23:00.184Z,100618.2
2022-08-03T10:23:59.378Z,100620.83
2022-08-03T10:26:03.380Z,100616.58
2022-08-03T10:27:06.455Z,100616.02
2022-08-03T10:28:05.767Z,100617.52
2022-08-03T10:29:12.325Z,100614.72
2022-08-03T10:30:08.426Z,100613.12
2022-08-03T10:31:08.236Z,100618.48
2022-08-03T10:35:20.851Z,100626.33
2022-08-03T10:36:14.916Z,100624.99
2022-08-03T10:37:17.370Z,100626.84
2022-08-03T10:38:21.485Z,100623.9
2022-08-03T10:39:22.718Z,100628.12
2022-08-03T10:40:46.813Z,100626.39
2022-08-03T10:41:26.123Z,100625.58
2022-08-03T10:42:24.976Z,100627.06
2022-08-03T10:44:33.198Z,100629.31
2022-08-03T10:45:34.225Z,100628.45
2022-08-03T10:46:33.632Z,100630.33
2022-08-03T10:47:33.126Z,100628.86
2022-08-03T10:48:33.629Z,100630.83
2022-08-03T10:49:34.573Z,100630.5
2022-08-03T10:50:33.237Z,100628.43
2022-08-03T10:51:34.674Z,100629.8
2022-08-03T10:52:35.113Z,100628.36
2022-08-03T10:53:39.399Z,100626.7
2022-08-03T10:54:45.556Z,100625.83
2022-08-03T10:55:42.889Z,100625.8
2022-08-03T10:56:49.792Z,100628.41
2022-08-03T11:00:00.634Z,100628.06
2022-08-03T11:00:53.453Z,100627.14
2022-08-03T11:02:00.835Z,100632.75
2022-08-03T11:11:26.203Z,100628.9
2022-08-03T11:12:32.626Z,100629.16
2022-08-03T11:13:23.465Z,100630.3
2022-08-03T11:14:22.129Z,100633.11
2022-08-03T11:15:33.915Z,100629.47
2022-08-03T11:16:22.261Z,100633.17
2022-08-03T11:17:22.352Z,100625.09
2022-08-03T11:18:22.971Z,100631.46
2022-08-03T11:24:03.470Z,100627.33
2022-08-03T11:27:48.220Z,100628.09
2022-08-03T11:28:49.367Z,100627.59
2022-08-03T11:30:52.956Z,100620.14
2022-08-03T11:31:53.268Z,100624.61
2022-08-03T11:32:57.360Z,100625.34
2022-08-03T11:36:02.832Z,100621.1
2022-08-03T11:45:20.126Z,100611.95
2022-08-03T11:46:29.782Z,100614.16
2022-08-03T11:47:24.200Z,100614.45
2022-08-03T11:48:23.381Z,100617.15
2022-08-03T11:49:24.269Z,100615.73
2022-08-03T11:50:24.110Z,100616.74
2022-08-03T11:51:30.930Z,100612.53
2022-08-03T11:52:35.385Z,100616.39
2022-08-03T11:53:33.147Z,100613
2022-08-03T11:54:34.702Z,100614.27
2022-08-03T11:55:36.127Z,100606.72
2022-08-03T11:59:16.705Z,100618.91
2022-08-03T11:59:45.896Z,100617.76
2022-08-03T12:00:46.477Z,100617.47
2022-08-03T12:01:46.606Z,100618.02
2022-08-03T12:03:51.837Z,100614.42
2022-08-03T12:04:56.567Z,100616.5
2022-08-03T12:05:54.706Z,100622.27
2022-08-03T12:07:06.108Z,100613.55
2022-08-03T12:08:03.779Z,100615.61
2022-08-03T12:09:16.161Z,100615.69
2022-08-03T12:10:14.312Z,100618.75
2022-08-03T12:11:14.006Z,100613.14
2022-08-03T12:12:16.377Z,100612.52
2022-08-03T12:14:44.261Z,100609.7
2022-08-03T12:16:23.978Z,100618.3
2022-08-03T12:17:22.709Z,100616.41
2022-08-03T12:18:23.813Z,100616.97
2022-08-03T12:19:23.482Z,100617.89
2022-08-03T12:20:34.741Z,100621.23
2022-08-03T12:21:28.835Z,100620.44
2022-08-03T12:22:34.989Z,100622.75
2022-08-03T12:23:37.578Z,100619.45
2022-08-03T12:25:41.645Z,100622.86
2022-08-03T12:27:42.164Z,100623.35
2022-08-03T12:28:50.064Z,100625.69
2022-08-03T12:29:58.609Z,100624.83
2022-08-03T12:30:52.732Z,100622.09
2022-08-03T12:31:52.124Z,100623.93
2022-08-03T12:37:05.452Z,100619.48
2022-08-03T12:38:05.880Z,100619.05
2022-08-03T12:39:07.934Z,100620.66
2022-08-03T12:40:10.592Z,100619.78
2022-08-03T12:41:10.201Z,100618.59
2022-08-03T12:42:08.568Z,100620.34
2022-08-03T12:44:10.845Z,100612.92
2022-08-03T12:46:16.977Z,100618.37
2022-08-03T12:47:15.360Z,100617.14
2022-08-03T12:48:15.164Z,100615.17
2022-08-03T12:49:16.590Z,100616.62
2022-08-03T12:50:24.906Z,100615.92
2022-08-03T12:51:17.341Z,100612.27
2022-08-03T12:52:19.696Z,100618.92
2022-08-03T12:53:29.233Z,100614.99
2022-08-03T12:54:24.293Z,100621.36
2022-08-03T12:55:23.717Z,100617.52
2022-08-03T12:56:23.109Z,100619.04
2022-08-03T12:57:23.111Z,100616
2022-08-03T12:58:34.881Z,100618.47
2022-08-03T12:59:32.454Z,100616.11
2022-08-03T13:00:29.381Z,100619.11
2022-08-03T13:02:28.987Z,100616.68
2022-08-03T13:03:39.518Z,100614.53
2022-08-03T13:04:35.645Z,100611.76
2022-08-03T13:05:43.544Z,100613.41
2022-08-03T13:06:35.965Z,100609.45
2022-08-03T13:07:45.904Z,100610.16
2022-08-03T13:08:38.752Z,100613.42
2022-08-03T13:09:47.569Z,100616.5
2022-08-03T13:10:39.996Z,100611.19